sensor_id;sensor_type;location;lat;lon;timestamp;pressure;altitude;pressure_sealevel;temperature;humidity
11487;BME280;10510;47.942;9.442;2024-02-26T00:00:39;92739.19;;;4.00;100.00
11487;BME280;10510;47.942;9.442;2024-02-26T00:02:39;92737.41;;;4.01;100.00
11487;BME280;10510;47.942;9.442;2024-02-26T00:04:40;92729.81;;;3.99;100.00
11487;BME280;10510;47.942;9.442;2024-02-26T00:06:40;92730.44;;;4.01;100.00
11487;BME280;10510;47.942;9.442;2024-02-26T00:08:41;92728.66;;;4.02;100.00
11487;BME280;10510;47.942;9.442;2024-02-26T00:10:41;92735.78;;;4.00;100.00
11487;BME280;10510;47.942;9.442;2024-02-26T00:12:42;92728.25;;;3.98;100.00
11487;BME280;10510;47.942;9.442;2024-02-26T00:14:43;92730.19;;;3.96;100.00
11487;BME280;10510;47.942;9.442;2024-02-26T00:16:45;92727.03;;;3.94;100.00
11487;BME280;10510;47.942;9.442;2024-02-26T00:18:45;92739.34;;;3.92;100.00
11487;BME280;10510;47.942;9.442;2024-02-26T00:20:45;92728.38;;;3.90;100.00
11487;BME280;10510;47.942;9.442;2024-02-26T00:22:46;92735.13;;;3.91;100.00
11487;BME280;10510;47.942;9.442;2024-02-26T00:24:46;92735.13;;;3.91;100.00
11487;BME280;10510;47.942;9.442;2024-02-26T00:26:46;92739.72;;;3.89;100.00
11487;BME280;10510;47.942;9.442;2024-02-26T00:28:46;92734.53;;;3.89;100.00
11487;BME280;10510;47.942;9.442;2024-02-26T00:30:47;92732.75;;;3.90;100.00
11487;BME280;10510;47.942;9.442;2024-02-26T00:32:47;92742.88;;;3.91;100.00
11487;BME280;10510;47.942;9.442;2024-02-26T00:34:48;92739.34;;;3.92;100.00
11487;BME280;10510;47.942;9.442;2024-02-26T00:36:48;92737.53;;;3.93;100.00
11487;BME280;10510;47.942;9.442;2024-02-26T00:38:49;92738.97;;;3.95;100.00
11487;BME280;10510;47.942;9.442;2024-02-26T00:40:51;92737.00;;;3.97;100.00
11487;BME280;10510;47.942;9.442;2024-02-26T00:42:51;92734.41;;;3.97;100.00
11487;BME280;10510;47.942;9.442;2024-02-26T00:44:51;92731.81;;;3.97;100.00
11487;BME280;10510;47.942;9.442;2024-02-26T00:46:51;92728.63;;;3.95;100.00
11487;BME280;10510;47.942;9.442;2024-02-26T00:48:52;92722.81;;;3.93;100.00
11487;BME280;10510;47.942;9.442;2024-02-26T00:50:52;92711.69;;;3.93;100.00
11487;BME280;10510;47.942;9.442;2024-02-26T00:52:52;92711.69;;;3.93;100.00
11487;BME280;10510;47.942;9.442;2024-02-26T00:54:53;92714.69;;;3.96;100.00
11487;BME280;10510;47.942;9.442;2024-02-26T00:56:53;92707.56;;;3.98;100.00
11487;BME280;10510;47.942;9.442;2024-02-26T00:58:54;92709.94;;;4.00;100.00
11487;BME280;10510;47.942;9.442;2024-02-26T01:00:54;92709.75;;;4.01;100.00
11487;BME280;10510;47.942;9.442;2024-02-26T01:02:55;92717.13;;;4.04;100.00
11487;BME280;10510;47.942;9.442;2024-02-26T01:04:55;92708.59;;;4.04;100.00
11487;BME280;10510;47.942;9.442;2024-02-26T01:06:55;92711.97;;;4.04;100.00
11487;BME280;10510;47.942;9.442;2024-02-26T01:08:56;92707.59;;;4.05;100.00
11487;BME280;10510;47.942;9.442;2024-02-26T01:10:56;92708.59;;;4.04;100.00
11487;BME280;10510;47.942;9.442;2024-02-26T01:12:56;92706.78;;;4.04;100.00
11487;BME280;10510;47.942;9.442;2024-02-26T01:14:56;92711.97;;;4.04;100.00
11487;BME280;10510;47.942;9.442;2024-02-26T01:16:57;92699.44;;;4.08;100.00
11487;BME280;10510;47.942;9.442;2024-02-26T01:18:57;92698.28;;;4.10;100.00
11487;BME280;10510;47.942;9.442;2024-02-26T01:20:57;92701.47;;;4.13;100.00
11487;BME280;10510;47.942;9.442;2024-02-26T01:22:58;92699.47;;;4.15;100.00
11487;BME280;10510;47.942;9.442;2024-02-26T01:24:58;92701.09;;;4.16;100.00
11487;BME280;10510;47.942;9.442;2024-02-26T01:26:58;92696.72;;;4.16;100.00
11487;BME280;10510;47.942;9.442;2024-02-26T01:28:58;92695.94;;;4.16;100.00
11487;BME280;10510;47.942;9.442;2024-02-26T01:30:59;92695.94;;;4.16;100.00
11487;BME280;10510;47.942;9.442;2024-02-26T01:33:00;92694.13;;;4.16;100.00
11487;BME280;10510;47.942;9.442;2024-02-26T01:35:00;92693.34;;;4.16;100.00
11487;BME280;10510;47.942;9.442;2024-02-26T01:37:00;92699.31;;;4.16;100.00
11487;BME280;10510;47.942;9.442;2024-02-26T01:39:00;92695.94;;;4.16;100.00
11487;BME280;10510;47.942;9.442;2024-02-26T01:41:03;92700.69;;;4.12;100.00
11487;BME280;10510;47.942;9.442;2024-02-26T01:43:04;92702.41;;;4.05;100.00
11487;BME280;10510;47.942;9.442;2024-02-26T01:45:05;92703.00;;;4.00;100.00
11487;BME280;10510;47.942;9.442;2024-02-26T01:47:07;92705.75;;;3.99;100.00
11487;BME280;10510;47.942;9.442;2024-02-26T01:49:11;92704.56;;;3.95;100.00
11487;BME280;10510;47.942;9.442;2024-02-26T01:51:14;92706.91;;;3.90;100.00
11487;BME280;10510;47.942;9.442;2024-02-26T01:53:15;92717.38;;;3.81;100.00
11487;BME280;10510;47.942;9.442;2024-02-26T01:55:18;92711.94;;;3.70;100.00
11487;BME280;10510;47.942;9.442;2024-02-26T01:57:19;92713.47;;;3.64;100.00
11487;BME280;10510;47.942;9.442;2024-02-26T01:59:19;92707.91;;;3.60;100.00
11487;BME280;10510;47.942;9.442;2024-02-26T02:01:21;92707.47;;;3.57;100.00
11487;BME280;10510;47.942;9.442;2024-02-26T02:03:23;92707.66;;;3.55;100.00
11487;BME280;10510;47.942;9.442;2024-02-26T02:05:24;92704.66;;;3.52;100.00
11487;BME280;10510;47.942;9.442;2024-02-26T02:07:26;92701.44;;;3.50;100.00
11487;BME280;10510;47.942;9.442;2024-02-26T02:09:27;92695.47;;;3.49;100.00
11487;BME280;10510;47.942;9.442;2024-02-26T02:11:27;92699.47;;;3.52;100.00
11487;BME280;10510;47.942;9.442;2024-02-26T02:13:28;92710.41;;;3.47;100.00
11487;BME280;10510;47.942;9.442;2024-02-26T02:15:28;92692.84;;;3.42;100.00
11487;BME280;10510;47.942;9.442;2024-02-26T02:17:30;92700.34;;;3.37;100.00
11487;BME280;10510;47.942;9.442;2024-02-26T02:19:31;92707.69;;;3.34;100.00
11487;BME280;10510;47.942;9.442;2024-02-26T02:21:31;92701.91;;;3.32;100.00
11487;BME280;10510;47.942;9.442;2024-02-26T02:23:31;92707.84;;;3.32;100.00
11487;BME280;10510;47.942;9.442;2024-02-26T02:25:32;92700.13;;;3.32;100.00
11487;BME280;10510;47.942;9.442;2024-02-26T02:27:32;92701.69;;;3.27;100.00
11487;BME280;10510;47.942;9.442;2024-02-26T02:29:32;92691.91;;;3.22;100.00
11487;BME280;10510;47.942;9.442;2024-02-26T02:31:33;92701.59;;;3.20;100.00
11487;BME280;10510;47.942;9.442;2024-02-26T02:33:34;92705.19;;;3.19;100.00
11487;BME280;10510;47.942;9.442;2024-02-26T02:35:35;92701.00;;;3.18;100.00
11487;BME280;10510;47.942;9.442;2024-02-26T02:37:35;92712.50;;;3.15;100.00
11487;BME280;10510;47.942;9.442;2024-02-26T02:39:35;92708.31;;;3.14;100.00
11487;BME280;10510;47.942;9.442;2024-02-26T02:41:35;92713.66;;;3.13;100.00
11487;BME280;10510;47.942;9.442;2024-02-26T02:43:36;92708.06;;;3.09;100.00
11487;BME280;10510;47.942;9.442;2024-02-26T02:45:36;92703.09;;;3.08;100.00
11487;BME280;10510;47.942;9.442;2024-02-26T02:47:37;92712.78;;;3.06;100.00
11487;BME280;10510;47.942;9.442;2024-02-26T02:49:37;92713.78;;;3.05;100.00
11487;BME280;10510;47.942;9.442;2024-02-26T02:51:38;92710.41;;;3.04;100.00
11487;BME280;10510;47.942;9.442;2024-02-26T02:53:39;92715.19;;;3.07;100.00
11487;BME280;10510;47.942;9.442;2024-02-26T02:55:39;92719.38;;;3.08;100.00
11487;BME280;10510;47.942;9.442;2024-02-26T02:57:39;92744.38;;;3.08;100.00
11487;BME280;10510;47.942;9.442;2024-02-26T02:59:41;92742.53;;;3.02;100.00
11487;BME280;10510;47.942;9.442;2024-02-26T03:01:41;92743.06;;;2.97;100.00
11487;BME280;10510;47.942;9.442;2024-02-26T03:03:41;92739.69;;;2.96;100.00
11487;BME280;10510;47.942;9.442;2024-02-26T03:05:42;92752.22;;;3.00;100.00
11487;BME280;10510;47.942;9.442;2024-02-26T03:07:42;92750.28;;;3.02;100.00
11487;BME280;10510;47.942;9.442;2024-02-26T03:09:43;92747.69;;;3.02;100.00
11487;BME280;10510;47.942;9.442;2024-02-26T03:11:43;92750.28;;;3.02;100.00
11487;BME280;10510;47.942;9.442;2024-02-26T03:13:44;92746.34;;;3.06;100.00
11487;BME280;10510;47.942;9.442;2024-02-26T03:15:44;92743.59;;;3.07;100.00
11487;BME280;10510;47.942;9.442;2024-02-26T03:17:44;92741.00;;;3.07;100.00
11487;BME280;10510;47.942;9.442;2024-02-26T03:19:45;92741.63;;;3.09;100.00
11487;BME280;10510;47.942;9.442;2024-02-26T03:21:47;92746.97;;;3.08;100.00
11487;BME280;10510;47.942;9.442;2024-02-26T03:23:47;92737.38;;;3.02;100.00
11487;BME280;10510;47.942;9.442;2024-02-26T03:25:47;92737.75;;;2.99;100.00
11487;BME280;10510;47.942;9.442;2024-02-26T03:27:48;92729.22;;;2.98;100.00
11487;BME280;10510;47.942;9.442;2024-02-26T03:29:48;92736.16;;;2.98;100.00
11487;BME280;10510;47.942;9.442;2024-02-26T03:31:48;92726.00;;;2.96;100.00
11487;BME280;10510;47.942;9.442;2024-02-26T03:33:48;92706.34;;;2.95;100.00
11487;BME280;10510;47.942;9.442;2024-02-26T03:35:49;92709.19;;;3.00;100.00
11487;BME280;10510;47.942;9.442;2024-02-26T03:37:49;92714.56;;;3.05;100.00
11487;BME280;10510;47.942;9.442;2024-02-26T03:39:51;92716.78;;;3.08;100.00
11487;BME280;10510;47.942;9.442;2024-02-26T03:41:52;92714.41;;;3.07;100.00
11487;BME280;10510;47.942;9.442;2024-02-26T03:43:52;92719.72;;;3.05;100.00
11487;BME280;10510;47.942;9.442;2024-02-26T03:45:52;92720.09;;;3.02;100.00
11487;BME280;10510;47.942;9.442;2024-02-26T03:47:52;92723.06;;;2.99;100.00
11487;BME280;10510;47.942;9.442;2024-02-26T03:49:53;92733.75;;;2.96;100.00
11487;BME280;10510;47.942;9.442;2024-02-26T03:51:53;92732.31;;;2.93;100.00
11487;BME280;10510;47.942;9.442;2024-02-26T03:53:53;92740.25;;;2.92;100.00
11487;BME280;10510;47.942;9.442;2024-02-26T03:55:54;92724.78;;;2.92;100.00
11487;BME280;10510;47.942;9.442;2024-02-26T03:57:55;92729.75;;;2.93;100.00
11487;BME280;10510;47.942;9.442;2024-02-26T03:59:56;92726.00;;;2.96;100.00
11487;BME280;10510;47.942;9.442;2024-02-26T04:01:56;92726.78;;;2.96;100.00
11487;BME280;10510;47.942;9.442;2024-02-26T04:03:56;92732.41;;;3.00;100.00
11487;BME280;10510;47.942;9.442;2024-02-26T04:05:57;92725.25;;;3.02;100.00
11487;BME280;10510;47.942;9.442;2024-02-26T04:07:57;92719.13;;;3.03;100.00
11487;BME280;10510;47.942;9.442;2024-02-26T04:09:57;92713.59;;;3.06;100.00
11487;BME280;10510;47.942;9.442;2024-02-26T04:11:57;92728.72;;;3.09;100.00
11487;BME280;10510;47.942;9.442;2024-02-26T04:13:58;92723.31;;;3.04;100.00
11487;BME280;10510;47.942;9.442;2024-02-26T04:15:58;92702.41;;;2.99;100.00
11487;BME280;10510;47.942;9.442;2024-02-26T04:17:58;92717.53;;;3.02;100.00
11487;BME280;10510;47.942;9.442;2024-02-26T04:19:59;92697.50;;;3.04;100.00
11487;BME280;10510;47.942;9.442;2024-02-26T04:21:59;92695.34;;;3.08;100.00
11487;BME280;10510;47.942;9.442;2024-02-26T04:23:59;92686.00;;;3.07;100.00
11487;BME280;10510;47.942;9.442;2024-02-26T04:26:02;92676.66;;;3.06;100.00
11487;BME280;10510;47.942;9.442;2024-02-26T04:28:02;92668.72;;;3.07;100.00
11487;BME280;10510;47.942;9.442;2024-02-26T04:30:03;92678.69;;;3.10;100.00
11487;BME280;10510;47.942;9.442;2024-02-26T04:32:04;92683.69;;;3.12;100.00
11487;BME280;10510;47.942;9.442;2024-02-26T04:34:05;92677.09;;;3.09;100.00
11487;BME280;10510;47.942;9.442;2024-02-26T04:36:12;92672.09;;;3.08;100.00
11487;BME280;10510;47.942;9.442;2024-02-26T04:38:13;92672.09;;;3.08;100.00
11487;BME280;10510;47.942;9.442;2024-02-26T04:40:13;92685.00;;;3.08;100.00
11487;BME280;10510;47.942;9.442;2024-02-26T04:42:13;92688.75;;;3.05;100.00
11487;BME280;10510;47.942;9.442;2024-02-26T04:44:14;92690.50;;;2.98;100.00
11487;BME280;10510;47.942;9.442;2024-02-26T04:46:14;92690.06;;;2.94;100.00
11487;BME280;10510;47.942;9.442;2024-02-26T04:48:14;92698.78;;;2.93;100.00
11487;BME280;10510;47.942;9.442;2024-02-26T04:50:15;92688.81;;;2.90;100.00
11487;BME280;10510;47.942;9.442;2024-02-26T04:52:15;92685.06;;;2.93;100.00
11487;BME280;10510;47.942;9.442;2024-02-26T04:54:16;92687.66;;;2.93;100.00
11487;BME280;10510;47.942;9.442;2024-02-26T04:56:17;92686.25;;;2.90;100.00
11487;BME280;10510;47.942;9.442;2024-02-26T04:58:18;92693.56;;;2.87;100.00
11487;BME280;10510;47.942;9.442;2024-02-26T05:00:18;92688.56;;;2.85;100.00
11487;BME280;10510;47.942;9.442;2024-02-26T05:02:18;92692.94;;;2.85;100.00
11487;BME280;10510;47.942;9.442;2024-02-26T05:04:19;92708.63;;;2.83;100.00
11487;BME280;10510;47.942;9.442;2024-02-26T05:06:19;92707.34;;;2.79;100.00
11487;BME280;10510;47.942;9.442;2024-02-26T05:08:19;92714.03;;;2.73;100.00
11487;BME280;10510;47.942;9.442;2024-02-26T05:10:20;92713.81;;;2.68;100.00
11487;BME280;10510;47.942;9.442;2024-02-26T05:12:20;92717.34;;;2.67;100.00
11487;BME280;10510;47.942;9.442;2024-02-26T05:14:20;92714.97;;;2.66;100.00
11487;BME280;10510;47.942;9.442;2024-02-26T05:16:21;92724.06;;;2.62;100.00
11487;BME280;10510;47.942;9.442;2024-02-26T05:18:24;92721.81;;;2.59;100.00
11487;BME280;10510;47.942;9.442;2024-02-26T05:20:25;92723.81;;;2.57;100.00
11487;BME280;10510;47.942;9.442;2024-02-26T05:22:25;92732.97;;;2.59;100.00
11487;BME280;10510;47.942;9.442;2024-02-26T05:24:26;92733.91;;;2.58;100.00
11487;BME280;10510;47.942;9.442;2024-02-26T05:26:26;92740.06;;;2.57;100.00
11487;BME280;10510;47.942;9.442;2024-02-26T05:28:27;92735.91;;;2.56;100.00
11487;BME280;10510;47.942;9.442;2024-02-26T05:30:27;92730.13;;;2.54;100.00
11487;BME280;10510;47.942;9.442;2024-02-26T05:32:28;92739.22;;;2.50;100.00
11487;BME280;10510;47.942;9.442;2024-02-26T05:34:28;92731.38;;;2.43;100.00
11487;BME280;10510;47.942;9.442;2024-02-26T05:36:30;92729.94;;;2.41;100.00
11487;BME280;10510;47.942;9.442;2024-02-26T05:38:33;92729.34;;;2.39;100.00
11487;BME280;10510;47.942;9.442;2024-02-26T05:40:33;92724.91;;;2.33;100.00
11487;BME280;10510;47.942;9.442;2024-02-26T05:42:33;92726.16;;;2.22;100.00
11487;BME280;10510;47.942;9.442;2024-02-26T05:44:34;92733.81;;;2.15;100.00
11487;BME280;10510;47.942;9.442;2024-02-26T05:46:34;92735.22;;;2.18;100.00
11487;BME280;10510;47.942;9.442;2024-02-26T05:48:34;92746.84;;;2.14;100.00
11487;BME280;10510;47.942;9.442;2024-02-26T05:50:35;92754.16;;;2.10;100.00
11487;BME280;10510;47.942;9.442;2024-02-26T05:52:35;92756.44;;;2.05;100.00
11487;BME280;10510;47.942;9.442;2024-02-26T05:54:35;92767.13;;;2.02;100.00
11487;BME280;10510;47.942;9.442;2024-02-26T05:56:35;92766.22;;;1.95;100.00
11487;BME280;10510;47.942;9.442;2024-02-26T05:58:36;92770.94;;;1.91;100.00
11487;BME280;10510;47.942;9.442;2024-02-26T06:00:36;92773.25;;;1.86;100.00
11487;BME280;10510;47.942;9.442;2024-02-26T06:02:36;92789.50;;;1.87;100.00
11487;BME280;10510;47.942;9.442;2024-02-26T06:04:37;92788.69;;;1.86;100.00
11487;BME280;10510;47.942;9.442;2024-02-26T06:06:37;92783.09;;;1.83;100.00
11487;BME280;10510;47.942;9.442;2024-02-26T06:08:37;92781.47;;;1.81;100.00
11487;BME280;10510;47.942;9.442;2024-02-26T06:10:38;92771.00;;;1.83;100.00
11487;BME280;10510;47.942;9.442;2024-02-26T06:12:39;92764.25;;;1.82;100.00
11487;BME280;10510;47.942;9.442;2024-02-26T06:14:42;92782.13;;;1.84;100.00
11487;BME280;10510;47.942;9.442;2024-02-26T06:16:42;92782.56;;;1.87;100.00
11487;BME280;10510;47.942;9.442;2024-02-26T06:18:42;92774.91;;;1.94;100.00
11487;BME280;10510;47.942;9.442;2024-02-26T06:20:42;92787.44;;;1.97;100.00
11487;BME280;10510;47.942;9.442;2024-02-26T06:22:43;92798.22;;;2.00;100.00
11487;BME280;10510;47.942;9.442;2024-02-26T06:24:43;92803.44;;;1.92;100.00
11487;BME280;10510;47.942;9.442;2024-02-26T06:26:43;92796.22;;;1.88;100.00
11487;BME280;10510;47.942;9.442;2024-02-26T06:28:44;92800.09;;;1.92;100.00
11487;BME280;10510;47.942;9.442;2024-02-26T06:30:44;92794.38;;;1.96;100.00
11487;BME280;10510;47.942;9.442;2024-02-26T06:32:46;92809.03;;;1.96;100.00
11487;BME280;10510;47.942;9.442;2024-02-26T06:34:46;92820.16;;;1.96;100.00
11487;BME280;10510;47.942;9.442;2024-02-26T06:36:46;92819.00;;;1.99;100.00
11487;BME280;10510;47.942;9.442;2024-02-26T06:38:47;92822.56;;;1.98;100.00
11487;BME280;10510;47.942;9.442;2024-02-26T06:40:47;92823.38;;;1.98;100.00
11487;BME280;10510;47.942;9.442;2024-02-26T06:42:47;92824.59;;;2.02;100.00
11487;BME280;10510;47.942;9.442;2024-02-26T06:44:48;92829.94;;;2.01;100.00
11487;BME280;10510;47.942;9.442;2024-02-26T06:46:48;92828.00;;;2.03;100.00
11487;BME280;10510;47.942;9.442;2024-02-26T06:48:48;92836.78;;;2.09;100.00
11487;BME280;10510;47.942;9.442;2024-02-26T06:50:49;92842.75;;;2.09;100.00
11487;BME280;10510;47.942;9.442;2024-02-26T06:52:49;92828.25;;;2.08;100.00
11487;BME280;10510;47.942;9.442;2024-02-26T06:54:49;92815.81;;;2.12;100.00
11487;BME280;10510;47.942;9.442;2024-02-26T06:56:51;92825.59;;;2.16;100.00
11487;BME280;10510;47.942;9.442;2024-02-26T06:58:51;92829.25;;;2.22;100.00
11487;BME280;10510;47.942;9.442;2024-02-26T07:00:51;92832.91;;;2.27;100.00
11487;BME280;10510;47.942;9.442;2024-02-26T07:02:52;92850.69;;;2.37;100.00
11487;BME280;10510;47.942;9.442;2024-02-26T07:04:52;92839.22;;;2.40;100.00
11487;BME280;10510;47.942;9.442;2024-02-26T07:06:52;92838.97;;;2.49;100.00
11487;BME280;10510;47.942;9.442;2024-02-26T07:08:53;92844.66;;;2.60;100.00
11487;BME280;10510;47.942;9.442;2024-02-26T07:10:53;92843.03;;;2.73;100.00
11487;BME280;10510;47.942;9.442;2024-02-26T07:12:54;92843.66;;;2.90;100.00
11487;BME280;10510;47.942;9.442;2024-02-26T07:14:54;92846.13;;;3.13;100.00
11487;BME280;10510;47.942;9.442;2024-02-26T07:16:54;92841.59;;;3.37;100.00
11487;BME280;10510;47.942;9.442;2024-02-26T07:18:55;92846.19;;;3.56;100.00
11487;BME280;10510;47.942;9.442;2024-02-26T07:20:55;92849.31;;;3.73;100.00
11487;BME280;10510;47.942;9.442;2024-02-26T07:22:56;92849.06;;;3.90;100.00
11487;BME280;10510;47.942;9.442;2024-02-26T07:24:56;92858.69;;;4.02;100.00
11487;BME280;10510;47.942;9.442;2024-02-26T07:26:57;92849.28;;;4.16;100.00
11487;BME280;10510;47.942;9.442;2024-02-26T07:28:57;92847.38;;;4.31;100.00
11487;BME280;10510;47.942;9.442;2024-02-26T07:30:58;92843.56;;;4.55;100.00
11487;BME280;10510;47.942;9.442;2024-02-26T07:32:58;92838.50;;;4.75;100.00
11487;BME280;10510;47.942;9.442;2024-02-26T07:34:58;92838.84;;;5.00;100.00
11487;BME280;10510;47.942;9.442;2024-02-26T07:36:59;92834.53;;;5.21;100.00
11487;BME280;10510;47.942;9.442;2024-02-26T07:38:59;92842.94;;;5.36;100.00
11487;BME280;10510;47.942;9.442;2024-02-26T07:41:01;92851.53;;;5.43;100.00
11487;BME280;10510;47.942;9.442;2024-02-26T07:43:02;92853.72;;;5.46;100.00
11487;BME280;10510;47.942;9.442;2024-02-26T07:45:03;92850.16;;;5.54;100.00
11487;BME280;10510;47.942;9.442;2024-02-26T07:47:03;92847.81;;;5.66;100.00
11487;BME280;10510;47.942;9.442;2024-02-26T07:49:04;92856.00;;;5.76;100.00
11487;BME280;10510;47.942;9.442;2024-02-26T07:51:04;92851.63;;;5.83;100.00
11487;BME280;10510;47.942;9.442;2024-02-26T07:53:05;92840.47;;;5.89;100.00
11487;BME280;10510;47.942;9.442;2024-02-26T07:55:05;92829.47;;;5.87;100.00
11487;BME280;10510;47.942;9.442;2024-02-26T07:57:06;92821.53;;;5.89;100.00
11487;BME280;10510;47.942;9.442;2024-02-26T07:59:07;92832.94;;;5.95;100.00
11487;BME280;10510;47.942;9.442;2024-02-26T08:01:07;92831.94;;;6.09;100.00
11487;BME280;10510;47.942;9.442;2024-02-26T08:03:07;92832.94;;;6.21;100.00
11487;BME280;10510;47.942;9.442;2024-02-26T08:05:08;92834.75;;;6.21;100.00
11487;BME280;10510;47.942;9.442;2024-02-26T08:07:08;92823.75;;;5.99;100.00
11487;BME280;10510;47.942;9.442;2024-02-26T08:09:08;92829.69;;;5.86;100.00
11487;BME280;10510;47.942;9.442;2024-02-26T08:11:09;92838.66;;;5.90;100.00
11487;BME280;10510;47.942;9.442;2024-02-26T08:13:09;92831.34;;;6.00;100.00
11487;BME280;10510;47.942;9.442;2024-02-26T08:15:09;92834.50;;;6.02;100.00
11487;BME280;10510;47.942;9.442;2024-02-26T08:17:11;92836.31;;;5.95;100.00
11487;BME280;10510;47.942;9.442;2024-02-26T08:19:11;92844.50;;;5.99;100.00
11487;BME280;10510;47.942;9.442;2024-02-26T08:21:14;92831.13;;;6.02;100.00
11487;BME280;10510;47.942;9.442;2024-02-26T08:23:14;92831.13;;;6.02;100.00
11487;BME280;10510;47.942;9.442;2024-02-26T08:25:14;92822.72;;;6.00;100.00
11487;BME280;10510;47.942;9.442;2024-02-26T08:27:16;92823.56;;;6.00;100.00
11487;BME280;10510;47.942;9.442;2024-02-26T08:29:16;92820.75;;;6.02;100.00
11487;BME280;10510;47.942;9.442;2024-02-26T08:31:16;92828.53;;;6.02;100.00
11487;BME280;10510;47.942;9.442;2024-02-26T08:33:17;92821.56;;;6.09;100.00
11487;BME280;10510;47.942;9.442;2024-02-26T08:35:17;92826.94;;;6.21;100.00
11487;BME280;10510;47.942;9.442;2024-02-26T08:37:18;92815.75;;;6.40;100.00
11487;BME280;10510;47.942;9.442;2024-02-26T08:39:18;92816.72;;;6.59;100.00
11487;BME280;10510;47.942;9.442;2024-02-26T08:41:18;92817.88;;;6.76;100.00
11487;BME280;10510;47.942;9.442;2024-02-26T08:43:19;92806.19;;;7.12;100.00
11487;BME280;10510;47.942;9.442;2024-02-26T08:45:19;92820.16;;;7.56;100.00
11487;BME280;10510;47.942;9.442;2024-02-26T08:47:19;92815.78;;;7.82;100.00
11487;BME280;10510;47.942;9.442;2024-02-26T08:49:20;92824.84;;;8.29;100.00
11487;BME280;10510;47.942;9.442;2024-02-26T08:51:22;92816.38;;;8.84;100.00
11487;BME280;10510;47.942;9.442;2024-02-26T08:53:23;92828.47;;;10.36;100.00
11487;BME280;10510;47.942;9.442;2024-02-26T08:55:23;92821.50;;;13.72;100.00
11487;BME280;10510;47.942;9.442;2024-02-26T08:57:23;92814.41;;;15.43;100.00
11487;BME280;10510;47.942;9.442;2024-02-26T08:59:24;92822.91;;;15.61;100.00
11487;BME280;10510;47.942;9.442;2024-02-26T09:01:24;92819.53;;;14.43;100.00
11487;BME280;10510;47.942;9.442;2024-02-26T09:03:24;92825.56;;;13.84;100.00
11487;BME280;10510;47.942;9.442;2024-02-26T09:05:26;92820.69;;;14.25;100.00
11487;BME280;10510;47.942;9.442;2024-02-26T09:07:26;92811.22;;;13.26;100.00
11487;BME280;10510;47.942;9.442;2024-02-26T09:09:27;92810.88;;;12.62;100.00
11487;BME280;10510;47.942;9.442;2024-02-26T09:11:27;92818.56;;;12.68;100.00
11487;BME280;10510;47.942;9.442;2024-02-26T09:13:27;92822.63;;;13.81;100.00
11487;BME280;10510;47.942;9.442;2024-02-26T09:15:28;92811.94;;;15.79;100.00
11487;BME280;10510;47.942;9.442;2024-02-26T09:17:28;92817.59;;;17.91;100.00
11487;BME280;10510;47.942;9.442;2024-02-26T09:19:28;92818.56;;;19.71;100.00
11487;BME280;10510;47.942;9.442;2024-02-26T09:21:29;92816.88;;;19.51;100.00
11487;BME280;10510;47.942;9.442;2024-02-26T09:23:29;92820.56;;;20.60;100.00
11487;BME280;10510;47.942;9.442;2024-02-26T09:25:29;92826.09;;;22.12;100.00
11487;BME280;10510;47.942;9.442;2024-02-26T09:27:30;92833.72;;;23.45;100.00
11487;BME280;10510;47.942;9.442;2024-02-26T09:29:30;92845.38;;;23.89;100.00
11487;BME280;10510;47.942;9.442;2024-02-26T09:31:31;92827.59;;;24.33;100.00
11487;BME280;10510;47.942;9.442;2024-02-26T09:33:32;92832.81;;;24.64;100.00
11487;BME280;10510;47.942;9.442;2024-02-26T09:35:32;92845.06;;;24.74;100.00
11487;BME280;10510;47.942;9.442;2024-02-26T09:37:33;92843.00;;;24.97;100.00
11487;BME280;10510;47.942;9.442;2024-02-26T09:39:34;92838.00;;;24.96;100.00
11487;BME280;10510;47.942;9.442;2024-02-26T09:41:34;92844.13;;;25.13;100.00
11487;BME280;10510;47.942;9.442;2024-02-26T09:43:35;92827.44;;;25.25;100.00
11487;BME280;10510;47.942;9.442;2024-02-26T09:45:40;92830.25;;;25.29;100.00
11487;BME280;10510;47.942;9.442;2024-02-26T09:47:41;92826.25;;;25.61;100.00
11487;BME280;10510;47.942;9.442;2024-02-26T09:49:43;92829.31;;;25.80;100.00
11487;BME280;10510;47.942;9.442;2024-02-26T09:51:43;92822.19;;;26.23;100.00
11487;BME280;10510;47.942;9.442;2024-02-26T09:53:44;92815.59;;;26.20;100.00
11487;BME280;10510;47.942;9.442;2024-02-26T09:55:45;92822.56;;;25.83;100.00
11487;BME280;10510;47.942;9.442;2024-02-26T09:57:46;92828.81;;;22.49;100.00
11487;BME280;10510;47.942;9.442;2024-02-26T09:59:48;92826.06;;;20.64;100.00
11487;BME280;10510;47.942;9.442;2024-02-26T10:01:50;92837.38;;;19.17;100.00
11487;BME280;10510;47.942;9.442;2024-02-26T10:03:55;92843.63;;;18.63;100.00
11487;BME280;10510;47.942;9.442;2024-02-26T10:05:56;92843.72;;;18.87;100.00
11487;BME280;10510;47.942;9.442;2024-02-26T10:07:59;92847.78;;;17.75;100.00
11487;BME280;10510;47.942;9.442;2024-02-26T10:10:01;92849.50;;;16.73;100.00
11487;BME280;10510;47.942;9.442;2024-02-26T10:12:02;92850.47;;;16.11;100.00
11487;BME280;10510;47.942;9.442;2024-02-26T10:14:03;92840.75;;;15.49;100.00
11487;BME280;10510;47.942;9.442;2024-02-26T10:16:04;92848.84;;;14.89;100.00
11487;BME280;10510;47.942;9.442;2024-02-26T10:18:05;92845.19;;;14.58;100.00
11487;BME280;10510;47.942;9.442;2024-02-26T10:20:13;92847.91;;;14.14;100.00
11487;BME280;10510;47.942;9.442;2024-02-26T10:22:15;92843.50;;;13.93;100.00
11487;BME280;10510;47.942;9.442;2024-02-26T10:24:16;92841.69;;;13.71;100.00
11487;BME280;10510;47.942;9.442;2024-02-26T10:26:16;92848.19;;;13.42;100.00
11487;BME280;10510;47.942;9.442;2024-02-26T10:28:17;92847.31;;;13.19;100.00
11487;BME280;10510;47.942;9.442;2024-02-26T10:30:19;92842.06;;;12.97;100.00
11487;BME280;10510;47.942;9.442;2024-02-26T10:32:19;92854.91;;;12.82;100.00
11487;BME280;10510;47.942;9.442;2024-02-26T10:34:20;92854.94;;;12.48;100.00
11487;BME280;10510;47.942;9.442;2024-02-26T10:36:20;92857.59;;;12.19;100.00